sensor_id;sensor_type;location;lat;lon;timestamp;temperature;humidity
6930;DHT22;3504;52.616;13.238;2024-02-23T00:04:39;10.55;87.05
6930;DHT22;3504;52.616;13.238;2024-02-23T00:09:40;10.61;86.72
6930;DHT22;3504;52.616;13.238;2024-02-23T00:14:40;10.65;86.62
6930;DHT22;3504;52.616;13.238;2024-02-23T00:19:41;10.71;86.13
6930;DHT22;3504;52.616;13.238;2024-02-23T00:24:41;10.72;85.91
6930;DHT22;3504;52.616;13.238;2024-02-23T00:29:42;10.74;85.57
6930;DHT22;3504;52.616;13.238;2024-02-23T00:34:42;10.72;85.29
6930;DHT22;3504;52.616;13.238;2024-02-23T00:39:43;10.68;85.08
6930;DHT22;3504;52.616;13.238;2024-02-23T00:44:44;10.68;85.09
6930;DHT22;3504;52.616;13.238;2024-02-23T00:49:44;10.65;84.90
6930;DHT22;3504;52.616;13.238;2024-02-23T00:54:45;10.65;84.68
6930;DHT22;3504;52.616;13.238;2024-02-23T00:59:48;10.63;84.70
6930;DHT22;3504;52.616;13.238;2024-02-23T01:04:49;10.64;84.58
6930;DHT22;3504;52.616;13.238;2024-02-23T01:09:49;10.61;84.48
6930;DHT22;3504;52.616;13.238;2024-02-23T01:14:50;10.64;84.37
6930;DHT22;3504;52.616;13.238;2024-02-23T01:19:53;10.61;84.30
6930;DHT22;3504;52.616;13.238;2024-02-23T01:24:53;10.63;83.86
6930;DHT22;3504;52.616;13.238;2024-02-23T01:29:54;10.67;83.49
6930;DHT22;3504;52.616;13.238;2024-02-23T01:34:55;10.69;83.00
6930;DHT22;3504;52.616;13.238;2024-02-23T01:39:55;10.79;82.26
6930;DHT22;3504;52.616;13.238;2024-02-23T01:44:56;10.82;81.76
6930;DHT22;3504;52.616;13.238;2024-02-23T01:50:00;10.89;80.73
6930;DHT22;3504;52.616;13.238;2024-02-23T01:55:00;10.95;80.04
6930;DHT22;3504;52.616;13.238;2024-02-23T02:00:01;10.96;79.74
6930;DHT22;3504;52.616;13.238;2024-02-23T02:05:05;10.95;78.16
6930;DHT22;3504;52.616;13.238;2024-02-23T02:10:09;10.95;78.45
6930;DHT22;3504;52.616;13.238;2024-02-23T02:15:09;10.81;74.83
6930;DHT22;3504;52.616;13.238;2024-02-23T02:20:13;10.69;73.90
6930;DHT22;3504;52.616;13.238;2024-02-23T02:25:14;10.60;73.79
6930;DHT22;3504;52.616;13.238;2024-02-23T02:30:16;10.57;74.16
6930;DHT22;3504;52.616;13.238;2024-02-23T02:35:16;10.51;74.38
6930;DHT22;3504;52.616;13.238;2024-02-23T02:40:17;10.45;74.50
6930;DHT22;3504;52.616;13.238;2024-02-23T02:45:17;10.34;70.63
6930;DHT22;3504;52.616;13.238;2024-02-23T02:50:18;10.25;70.24
6930;DHT22;3504;52.616;13.238;2024-02-23T02:55:18;10.14;69.92
6930;DHT22;3504;52.616;13.238;2024-02-23T03:00:19;10.04;69.05
6930;DHT22;3504;52.616;13.238;2024-02-23T03:05:19;9.89;67.51
6930;DHT22;3504;52.616;13.238;2024-02-23T03:10:20;9.85;66.83
6930;DHT22;3504;52.616;13.238;2024-02-23T03:15:20;9.79;67.38
6930;DHT22;3504;52.616;13.238;2024-02-23T03:20:21;9.73;67.53
6930;DHT22;3504;52.616;13.238;2024-02-23T03:25:21;9.58;67.32
6930;DHT22;3504;52.616;13.238;2024-02-23T03:30:22;9.53;67.96
6930;DHT22;3504;52.616;13.238;2024-02-23T03:35:22;9.43;67.68
6930;DHT22;3504;52.616;13.238;2024-02-23T03:40:23;9.36;67.78
6930;DHT22;3504;52.616;13.238;2024-02-23T03:45:24;9.30;67.78
6930;DHT22;3504;52.616;13.238;2024-02-23T03:50:24;9.30;66.88
6930;DHT22;3504;52.616;13.238;2024-02-23T03:55:25;9.31;66.74
6930;DHT22;3504;52.616;13.238;2024-02-23T04:00:26;9.31;66.84
6930;DHT22;3504;52.616;13.238;2024-02-23T04:05:26;9.35;66.17
6930;DHT22;3504;52.616;13.238;2024-02-23T04:10:27;9.30;65.43
6930;DHT22;3504;52.616;13.238;2024-02-23T04:15:27;9.30;65.65
6930;DHT22;3504;52.616;13.238;2024-02-23T04:20:28;9.24;65.08
6930;DHT22;3504;52.616;13.238;2024-02-23T04:25:28;9.25;65.60
6930;DHT22;3504;52.616;13.238;2024-02-23T04:30:29;9.20;65.82
6930;DHT22;3504;52.616;13.238;2024-02-23T04:35:29;9.17;65.54
6930;DHT22;3504;52.616;13.238;2024-02-23T04:40:30;9.14;63.97
6930;DHT22;3504;52.616;13.238;2024-02-23T04:45:30;9.07;62.95
6930;DHT22;3504;52.616;13.238;2024-02-23T04:50:31;9.00;60.70
6930;DHT22;3504;52.616;13.238;2024-02-23T04:55:31;8.90;59.83
6930;DHT22;3504;52.616;13.238;2024-02-23T05:00:32;8.90;60.72
6930;DHT22;3504;52.616;13.238;2024-02-23T05:05:35;8.84;60.70
6930;DHT22;3504;52.616;13.238;2024-02-23T05:10:36;8.71;61.71
6930;DHT22;3504;52.616;13.238;2024-02-23T05:15:36;8.59;61.52
6930;DHT22;3504;52.616;13.238;2024-02-23T05:20:37;8.49;62.58
6930;DHT22;3504;52.616;13.238;2024-02-23T05:25:37;8.32;62.42
6930;DHT22;3504;52.616;13.238;2024-02-23T05:30:40;8.24;63.28
6930;DHT22;3504;52.616;13.238;2024-02-23T05:35:41;8.18;63.73
6930;DHT22;3504;52.616;13.238;2024-02-23T05:40:41;8.09;64.30
6930;DHT22;3504;52.616;13.238;2024-02-23T05:45:42;8.02;64.62
6930;DHT22;3504;52.616;13.238;2024-02-23T05:50:44;7.88;65.40
6930;DHT22;3504;52.616;13.238;2024-02-23T05:55:44;7.84;65.90
6930;DHT22;3504;52.616;13.238;2024-02-23T06:00:44;7.81;66.15
6930;DHT22;3504;52.616;13.238;2024-02-23T06:05:45;7.71;66.15
6930;DHT22;3504;52.616;13.238;2024-02-23T06:10:45;7.70;66.10
6930;DHT22;3504;52.616;13.238;2024-02-23T06:15:46;7.67;66.63
6930;DHT22;3504;52.616;13.238;2024-02-23T06:20:47;7.64;67.20
6930;DHT22;3504;52.616;13.238;2024-02-23T06:25:48;7.60;67.51
6930;DHT22;3504;52.616;13.238;2024-02-23T06:30:48;7.58;67.62
6930;DHT22;3504;52.616;13.238;2024-02-23T06:35:49;7.53;67.84
6930;DHT22;3504;52.616;13.238;2024-02-23T06:40:49;7.44;66.48
6930;DHT22;3504;52.616;13.238;2024-02-23T06:45:50;7.48;67.92
6930;DHT22;3504;52.616;13.238;2024-02-23T06:50:51;7.51;67.85
6930;DHT22;3504;52.616;13.238;2024-02-23T06:55:51;7.65;67.94
6930;DHT22;3504;52.616;13.238;2024-02-23T07:00:52;7.73;67.72
6930;DHT22;3504;52.616;13.238;2024-02-23T07:05:52;7.84;67.01
6930;DHT22;3504;52.616;13.238;2024-02-23T07:10:53;7.95;66.91
6930;DHT22;3504;52.616;13.238;2024-02-23T07:15:53;7.97;66.17
6930;DHT22;3504;52.616;13.238;2024-02-23T07:20:56;7.94;65.20
6930;DHT22;3504;52.616;13.238;2024-02-23T07:25:56;7.94;65.95
6930;DHT22;3504;52.616;13.238;2024-02-23T07:30:57;7.95;65.34
6930;DHT22;3504;52.616;13.238;2024-02-23T07:35:57;8.01;65.53
6930;DHT22;3504;52.616;13.238;2024-02-23T07:40:58;8.04;65.55
6930;DHT22;3504;52.616;13.238;2024-02-23T07:46:02;8.04;66.26
6930;DHT22;3504;52.616;13.238;2024-02-23T07:51:05;8.15;65.98
6930;DHT22;3504;52.616;13.238;2024-02-23T07:56:07;8.25;65.64
6930;DHT22;3504;52.616;13.238;2024-02-23T08:01:08;8.39;64.86
6930;DHT22;3504;52.616;13.238;2024-02-23T08:06:08;8.49;63.61
6930;DHT22;3504;52.616;13.238;2024-02-23T08:11:12;8.73;63.85
6930;DHT22;3504;52.616;13.238;2024-02-23T08:16:16;8.74;63.58
6930;DHT22;3504;52.616;13.238;2024-02-23T08:21:17;8.83;63.30
6930;DHT22;3504;52.616;13.238;2024-02-23T08:26:21;8.89;63.25
6930;DHT22;3504;52.616;13.238;2024-02-23T08:31:22;9.03;63.05
6930;DHT22;3504;52.616;13.238;2024-02-23T08:36:22;9.08;62.45
6930;DHT22;3504;52.616;13.238;2024-02-23T08:41:23;9.10;62.78
6930;DHT22;3504;52.616;13.238;2024-02-23T08:46:24;9.14;63.25
6930;DHT22;3504;52.616;13.238;2024-02-23T08:51:24;9.21;62.99
6930;DHT22;3504;52.616;13.238;2024-02-23T08:56:25;9.32;62.00
6930;DHT22;3504;52.616;13.238;2024-02-23T09:01:25;9.59;62.39
6930;DHT22;3504;52.616;13.238;2024-02-23T09:06:26;9.76;59.91
6930;DHT22;3504;52.616;13.238;2024-02-23T09:11:26;9.87;59.50
6930;DHT22;3504;52.616;13.238;2024-02-23T09:16:27;9.89;59.64
6930;DHT22;3504;52.616;13.238;2024-02-23T09:21:28;9.81;59.91
6930;DHT22;3504;52.616;13.238;2024-02-23T09:26:28;9.82;59.54
6930;DHT22;3504;52.616;13.238;2024-02-23T09:31:29;9.87;57.93
6930;DHT22;3504;52.616;13.238;2024-02-23T09:36:30;9.99;57.69
6930;DHT22;3504;52.616;13.238;2024-02-23T09:41:30;10.12;58.48
6930;DHT22;3504;52.616;13.238;2024-02-23T09:46:31;10.25;56.67
6930;DHT22;3504;52.616;13.238;2024-02-23T09:51:34;10.46;56.93
6930;DHT22;3504;52.616;13.238;2024-02-23T09:56:36;10.35;55.39
6930;DHT22;3504;52.616;13.238;2024-02-23T10:01:37;10.24;55.82
6930;DHT22;3504;52.616;13.238;2024-02-23T10:06:38;10.12;55.98
6930;DHT22;3504;52.616;13.238;2024-02-23T10:11:39;9.94;55.40
6930;DHT22;3504;52.616;13.238;2024-02-23T10:16:39;10.06;56.21
6930;DHT22;3504;52.616;13.238;2024-02-23T10:21:40;10.06;55.98
6930;DHT22;3504;52.616;13.238;2024-02-23T10:26:40;9.99;55.46
6930;DHT22;3504;52.616;13.238;2024-02-23T10:31:41;10.14;55.28
6930;DHT22;3504;52.616;13.238;2024-02-23T10:36:42;10.28;53.77
6930;DHT22;3504;52.616;13.238;2024-02-23T10:41:57;10.41;54.39
6930;DHT22;3504;52.616;13.238;2024-02-23T10:47:02;10.65;55.94
6930;DHT22;3504;52.616;13.238;2024-02-23T10:52:03;10.57;54.28
6930;DHT22;3504;52.616;13.238;2024-02-23T10:57:05;10.42;53.90
6930;DHT22;3504;52.616;13.238;2024-02-23T11:02:07;10.52;54.88
6930;DHT22;3504;52.616;13.238;2024-02-23T11:07:13;10.61;53.82
6930;DHT22;3504;52.616;13.238;2024-02-23T11:12:23;10.81;54.31
6930;DHT22;3504;52.616;13.238;2024-02-23T11:17:28;11.05;53.99
6930;DHT22;3504;52.616;13.238;2024-02-23T11:22:32;10.95;53.68
6930;DHT22;3504;52.616;13.238;2024-02-23T11:27:34;10.85;54.07
6930;DHT22;3504;52.616;13.238;2024-02-23T11:32:38;10.74;54.42
6930;DHT22;3504;52.616;13.238;2024-02-23T11:38:08;10.72;53.63
6930;DHT22;3504;52.616;13.238;2024-02-23T11:43:10;10.88;54.88
6930;DHT22;3504;52.616;13.238;2024-02-23T11:48:10;10.82;54.83
6930;DHT22;3504;52.616;13.238;2024-02-23T11:53:11;10.92;55.38
6930;DHT22;3504;52.616;13.238;2024-02-23T11:58:11;10.81;52.48
6930;DHT22;3504;52.616;13.238;2024-02-23T12:03:13;10.78;54.23
6930;DHT22;3504;52.616;13.238;2024-02-23T12:08:13;10.82;53.42
6930;DHT22;3504;52.616;13.238;2024-02-23T12:13:14;10.88;54.61
6930;DHT22;3504;52.616;13.238;2024-02-23T12:18:14;10.81;53.45
6930;DHT22;3504;52.616;13.238;2024-02-23T12:23:15;10.88;53.72
6930;DHT22;3504;52.616;13.238;2024-02-23T12:28:18;10.95;52.53
6930;DHT22;3504;52.616;13.238;2024-02-23T12:33:20;10.85;52.58
6930;DHT22;3504;52.616;13.238;2024-02-23T12:38:22;10.89;52.17
6930;DHT22;3504;52.616;13.238;2024-02-23T12:43:22;10.86;52.93
6930;DHT22;3504;52.616;13.238;2024-02-23T12:48:24;10.76;52.78
6930;DHT22;3504;52.616;13.238;2024-02-23T12:53:39;10.72;53.45
6930;DHT22;3504;52.616;13.238;2024-02-23T12:58:42;10.63;52.41
6930;DHT22;3504;52.616;13.238;2024-02-23T13:03:43;10.55;53.56
6930;DHT22;3504;52.616;13.238;2024-02-23T13:08:43;10.63;54.09
6930;DHT22;3504;52.616;13.238;2024-02-23T13:13:44;10.61;53.04
6930;DHT22;3504;52.616;13.238;2024-02-23T13:18:44;10.49;54.15
6930;DHT22;3504;52.616;13.238;2024-02-23T13:23:47;10.40;53.06
6930;DHT22;3504;52.616;13.238;2024-02-23T13:28:47;10.30;53.43
6930;DHT22;3504;52.616;13.238;2024-02-23T13:33:48;10.40;54.69
6930;DHT22;3504;52.616;13.238;2024-02-23T13:38:51;10.40;53.82
6930;DHT22;3504;52.616;13.238;2024-02-23T13:43:52;10.34;54.39
6930;DHT22;3504;52.616;13.238;2024-02-23T13:49:06;10.35;54.77
6930;DHT22;3504;52.616;13.238;2024-02-23T13:54:07;10.24;53.96
6930;DHT22;3504;52.616;13.238;2024-02-23T13:59:08;10.21;54.58
6930;DHT22;3504;52.616;13.238;2024-02-23T14:04:08;10.13;55.50
6930;DHT22;3504;52.616;13.238;2024-02-23T14:09:09;10.06;56.06
6930;DHT22;3504;52.616;13.238;2024-02-23T14:14:10;9.99;55.77
6930;DHT22;3504;52.616;13.238;2024-02-23T14:19:10;10.07;56.68
6930;DHT22;3504;52.616;13.238;2024-02-23T14:24:11;9.99;54.84
6930;DHT22;3504;52.616;13.238;2024-02-23T14:29:11;9.85;53.42
6930;DHT22;3504;52.616;13.238;2024-02-23T14:34:12;9.73;54.45
6930;DHT22;3504;52.616;13.238;2024-02-23T14:39:12;9.66;54.34
6930;DHT22;3504;52.616;13.238;2024-02-23T14:44:13;9.63;53.99
6930;DHT22;3504;52.616;13.238;2024-02-23T14:49:14;9.69;54.84
6930;DHT22;3504;52.616;13.238;2024-02-23T14:54:14;9.62;55.35
6930;DHT22;3504;52.616;13.238;2024-02-23T14:59:15;9.49;55.17
6930;DHT22;3504;52.616;13.238;2024-02-23T15:04:15;9.56;55.75
6930;DHT22;3504;52.616;13.238;2024-02-23T15:09:16;9.49;55.44
6930;DHT22;3504;52.616;13.238;2024-02-23T15:14:16;9.51;55.89
6930;DHT22;3504;52.616;13.238;2024-02-23T15:19:17;9.48;56.11
6930;DHT22;3504;52.616;13.238;2024-02-23T15:24:17;9.52;56.84
6930;DHT22;3504;52.616;13.238;2024-02-23T15:29:19;9.49;57.37
6930;DHT22;3504;52.616;13.238;2024-02-23T15:34:20;9.32;56.21
6930;DHT22;3504;52.616;13.238;2024-02-23T15:39:21;9.27;56.78
6930;DHT22;3504;52.616;13.238;2024-02-23T15:44:22;9.27;57.11
6930;DHT22;3504;52.616;13.238;2024-02-23T15:49:23;9.18;57.32
6930;DHT22;3504;52.616;13.238;2024-02-23T15:54:24;9.18;57.45
6930;DHT22;3504;52.616;13.238;2024-02-23T15:59:27;9.12;57.05
6930;DHT22;3504;52.616;13.238;2024-02-23T16:04:30;9.05;57.64
6930;DHT22;3504;52.616;13.238;2024-02-23T16:09:30;8.96;57.60
6930;DHT22;3504;52.616;13.238;2024-02-23T16:14:31;8.87;57.48
6930;DHT22;3504;52.616;13.238;2024-02-23T16:19:31;8.81;58.05
6930;DHT22;3504;52.616;13.238;2024-02-23T16:24:31;8.73;58.18
6930;DHT22;3504;52.616;13.238;2024-02-23T16:29:32;8.71;57.99
6930;DHT22;3504;52.616;13.238;2024-02-23T16:34:33;8.66;57.54
6930;DHT22;3504;52.616;13.238;2024-02-23T16:39:36;8.63;57.62
6930;DHT22;3504;52.616;13.238;2024-02-23T16:44:36;8.56;57.96
6930;DHT22;3504;52.616;13.238;2024-02-23T16:49:37;8.48;58.34
6930;DHT22;3504;52.616;13.238;2024-02-23T16:54:37;8.45;58.69
6930;DHT22;3504;52.616;13.238;2024-02-23T16:59:38;8.39;59.09
6930;DHT22;3504;52.616;13.238;2024-02-23T17:04:38;8.35;59.03
6930;DHT22;3504;52.616;13.238;2024-02-23T17:09:39;8.35;59.74
6930;DHT22;3504;52.616;13.238;2024-02-23T17:14:39;8.32;59.80
6930;DHT22;3504;52.616;13.238;2024-02-23T17:19:40;8.26;60.24
6930;DHT22;3504;52.616;13.238;2024-02-23T17:24:41;8.22;60.38
6930;DHT22;3504;52.616;13.238;2024-02-23T17:29:41;8.21;60.75
6930;DHT22;3504;52.616;13.238;2024-02-23T17:34:42;8.11;60.81
6930;DHT22;3504;52.616;13.238;2024-02-23T17:39:42;8.05;61.14
6930;DHT22;3504;52.616;13.238;2024-02-23T17:44:43;8.04;61.05
6930;DHT22;3504;52.616;13.238;2024-02-23T17:49:43;8.02;61.35
6930;DHT22;3504;52.616;13.238;2024-02-23T17:54:44;7.98;61.87
6930;DHT22;3504;52.616;13.238;2024-02-23T17:59:44;7.98;61.95
6930;DHT22;3504;52.616;13.238;2024-02-23T18:04:45;7.83;61.81
6930;DHT22;3504;52.616;13.238;2024-02-23T18:09:49;7.75;62.08
6930;DHT22;3504;52.616;13.238;2024-02-23T18:14:50;7.68;62.07
6930;DHT22;3504;52.616;13.238;2024-02-23T18:19:51;7.60;62.36
6930;DHT22;3504;52.616;13.238;2024-02-23T18:24:51;7.58;62.50
6930;DHT22;3504;52.616;13.238;2024-02-23T18:29:52;7.57;62.67
6930;DHT22;3504;52.616;13.238;2024-02-23T18:34:52;7.53;62.74
6930;DHT22;3504;52.616;13.238;2024-02-23T18:39:53;7.54;62.93
6930;DHT22;3504;52.616;13.238;2024-02-23T18:44:54;7.56;63.09
6930;DHT22;3504;52.616;13.238;2024-02-23T18:49:57;7.50;63.21
6930;DHT22;3504;52.616;13.238;2024-02-23T18:54:57;7.43;63.56
6930;DHT22;3504;52.616;13.238;2024-02-23T18:59:58;7.39;63.98
6930;DHT22;3504;52.616;13.238;2024-02-23T19:04:59;7.37;64.20
6930;DHT22;3504;52.616;13.238;2024-02-23T19:09:59;7.32;64.40
6930;DHT22;3504;52.616;13.238;2024-02-23T19:15:00;7.32;64.47
6930;DHT22;3504;52.616;13.238;2024-02-23T19:20:00;7.30;64.66
6930;DHT22;3504;52.616;13.238;2024-02-23T19:25:01;7.24;65.06
6930;DHT22;3504;52.616;13.238;2024-02-23T19:30:02;7.26;65.02
6930;DHT22;3504;52.616;13.238;2024-02-23T19:35:04;7.23;65.06
6930;DHT22;3504;52.616;13.238;2024-02-23T19:40:05;7.26;64.99
6930;DHT22;3504;52.616;13.238;2024-02-23T19:45:08;7.26;65.38
6930;DHT22;3504;52.616;13.238;2024-02-23T19:50:09;7.22;65.37
6930;DHT22;3504;52.616;13.238;2024-02-23T19:55:09;7.23;65.36
6930;DHT22;3504;52.616;13.238;2024-02-23T20:00:10;7.19;65.38
6930;DHT22;3504;52.616;13.238;2024-02-23T20:05:11;7.16;65.32
6930;DHT22;3504;52.616;13.238;2024-02-23T20:10:11;7.16;65.39
6930;DHT22;3504;52.616;13.238;2024-02-23T20:15:16;7.09;65.52
6930;DHT22;3504;52.616;13.238;2024-02-23T20:20:17;7.11;65.66
6930;DHT22;3504;52.616;13.238;2024-02-23T20:25:18;7.06;65.52
6930;DHT22;3504;52.616;13.238;2024-02-23T20:30:18;7.06;65.66
6930;DHT22;3504;52.616;13.238;2024-02-23T20:35:19;7.05;65.66
6930;DHT22;3504;52.616;13.238;2024-02-23T20:40:20;7.01;65.69
6930;DHT22;3504;52.616;13.238;2024-02-23T20:45:20;7.01;65.63
6930;DHT22;3504;52.616;13.238;2024-02-23T20:50:22;6.95;65.68
6930;DHT22;3504;52.616;13.238;2024-02-23T20:55:23;6.93;65.84
6930;DHT22;3504;52.616;13.238;2024-02-23T21:00:24;6.85;65.71
6930;DHT22;3504;52.616;13.238;2024-02-23T21:05:24;6.85;65.83
6930;DHT22;3504;52.616;13.238;2024-02-23T21:10:25;6.82;65.79
6930;DHT22;3504;52.616;13.238;2024-02-23T21:15:25;6.75;65.95
6930;DHT22;3504;52.616;13.238;2024-02-23T21:20:26;6.70;66.25
6930;DHT22;3504;52.616;13.238;2024-02-23T21:25:26;6.63;66.50
6930;DHT22;3504;52.616;13.238;2024-02-23T21:30:27;6.57;66.87
6930;DHT22;3504;52.616;13.238;2024-02-23T21:35:27;6.50;66.95
6930;DHT22;3504;52.616;13.238;2024-02-23T21:40:28;6.51;67.04
6930;DHT22;3504;52.616;13.238;2024-02-23T21:45:28;6.45;67.36
6930;DHT22;3504;52.616;13.238;2024-02-23T21:50:29;6.41;67.39
6930;DHT22;3504;52.616;13.238;2024-02-23T21:55:29;6.38;67.73
6930;DHT22;3504;52.616;13.238;2024-02-23T22:00:30;6.38;67.74
6930;DHT22;3504;52.616;13.238;2024-02-23T22:05:31;6.34;67.85
6930;DHT22;3504;52.616;13.238;2024-02-23T22:10:31;6.24;68.48
6930;DHT22;3504;52.616;13.238;2024-02-23T22:15:32;6.16;68.65
6930;DHT22;3504;52.616;13.238;2024-02-23T22:20:32;6.10;68.71
6930;DHT22;3504;52.616;13.238;2024-02-23T22:25:34;6.05;69.07
6930;DHT22;3504;52.616;13.238;2024-02-23T22:30:34;5.99;68.98
6930;DHT22;3504;52.616;13.238;2024-02-23T22:35:35;5.96;69.31
6930;DHT22;3504;52.616;13.238;2024-02-23T22:40:35;5.86;69.28
6930;DHT22;3504;52.616;13.238;2024-02-23T22:45:38;5.82;69.69
6930;DHT22;3504;52.616;13.238;2024-02-23T22:50:39;5.72;70.26
6930;DHT22;3504;52.616;13.238;2024-02-23T22:55:40;5.65;70.59
6930;DHT22;3504;52.616;13.238;2024-02-23T23:00:40;5.49;71.07
6930;DHT22;3504;52.616;13.238;2024-02-23T23:05:45;5.44;71.14
6930;DHT22;3504;52.616;13.238;2024-02-23T23:10:45;5.42;71.14
6930;DHT22;3504;52.616;13.238;2024-02-23T23:15:45;5.32;71.56
6930;DHT22;3504;52.616;13.238;2024-02-23T23:20:46;5.32;71.56
6930;DHT22;3504;52.616;13.238;2024-02-23T23:25:46;5.35;71.62
6930;DHT22;3504;52.616;13.238;2024-02-23T23:30:47;5.32;71.27
6930;DHT22;3504;52.616;13.238;2024-02-23T23:35:52;5.32;71.44
6930;DHT22;3504;52.616;13.238;2024-02-23T23:40:53;5.31;71.52
6930;DHT22;3504;52.616;13.238;2024-02-23T23:45:53;5.30;71.58
6930;DHT22;3504;52.616;13.238;2024-02-23T23:50:54;5.30;71.82
6930;DHT22;3504;52.616;13.238;2024-02-23T23:55:54;5.28;71.76
